e-Mail: Password: Lost your password? Click here. - Register a new user

c h a v e z j u a r e z . c o m

Weather - Tiempo - Wetter - Temps

METAR DATA MMMX (Mexico City)

Mexico City / Licenci, Mexico (MMMX) 19-26N 099-06W
Feb 17, 2019 - 12:50 PM EST / 2019.02.17 1750 UTC
Wind: Calm:0
Visibility: 11 mile(s):0
Sky conditions: clear
Temperature: 78 F (26 C)
Dew Point: 37 F (3 C)
Relative Humidity: 22%
Pressure (altimeter): 30.26 in. Hg (1024 hPa)
Pressure tendency: 0.03 inches (0.9 hPa) lower than three hours ago
ob: MMMX 171750Z 00000KT 11SM SKC 26/03 A3026 NOSIG RMK SLP036 57009 953
cycle: 18

Mexico City

St. Prex




Current weather alarms for Switzerland


www.wetteralarm.ch